Flemington, MO

05:58 CDT le 19 avril 2015 (GMT -0500)
Fine Memorial | | Change Station
CLOSE
Current Station
Aéroport
Location: Kaiser,
Altitude: 869 ft
Stations météo à proximité

Alt. 869 ft 38.10 °N, 92.55 °W | Updated 23 minutes ago

Couvert
Couvert
55 ° F
Paraît 55 ° F
N
0
Vent Variable Vent de Nord

Aujourd'hui
Haut(e) -- | Bas -- ° F
--% Risque de précip.
Hier
Haut(e) -- | Bas -- ° F
Precip. -- pouce
6:33 AM 7:53 PM
Nouvelle lune, 1% visible
Pression 29.70 pouce
Visibilité 10.0 Miles terrestres
Nuages Nuages épars 6500 ft
Couvert 9000 ft
Point de rosée 52 ° F
Humidité 88%
Précipitations 0.00 pouce
Profondeur de la couche neigeuse Non disponible.
UV 0 sur 12
Pollen 3.30 sur 12
Qualité de l'air Non disponible.
Flu Activity Local Activity
METAR KAIZ 191035Z AUTO 00000KT 10SM SCT065 OVC090 13/11 A2970 RMK AO1

More Conditions Fewer Conditions

Pression 29.70 pouce
Visibilité 10.0 Miles terrestres
Nuages Nuages épars 6500 ft
Couvert 9000 ft
Point de rosée 52 ° F
Humidité 88%
Précipitations 0.00 pouce
Profondeur de la couche neigeuse Non disponible.
UV 0 sur 12
Pollen 3.30 sur 12
Qualité de l'air Non disponible.
Flu Activity Local Activity
METAR KAIZ 191035Z AUTO 00000KT 10SM SCT065 OVC090 13/11 A2970 RMK AO1

More Conditions Fewer Conditions

10-Day Weather Forecast

Almanac

Astronomie

Apr. 19, 2015 Lever Coucher
Temps réel
Crépuscule civil
Crépuscule nautique
Crépuscule astronomique
Lune
Durée de lumière visible
Longueur du jour
Tomorrow will be .
, % of the Moon is Illuminated

Extrêmes aujourd'hui

State Highs State Lows

Community

WunderPhotos

Upload Photos

1,814,759 Photos téléchargées !

WunderBlogs® & News

Nearby

Qualité de l'air

  Qualité de l'air Indice de la qualité de l'air Polluant
Not available.

Épaisseur de neige

Station Depth Altitude

Activité sismique

Ville Distance Mag. Time & Date
Minimum magnitude displayed is 2.5.

Températures des eaux côtières

Lieu Température

Stations

Stations météo à proximité

Emplacement de la station Température Refroidissement éolien Point de rosée Humidité Vent Precip. Alt. Mise à jour Type